sensor_id;sensor_type;location;lat;lon;timestamp;P1;durP1;ratioP1;P2;durP2;ratioP2
38805;SDS011;25635;51.146;17.162;2022-09-13T00:02:08;7.47;;;5.08;;
38805;SDS011;25635;51.146;17.162;2022-09-13T00:04:40;8.53;;;4.65;;
38805;SDS011;25635;51.146;17.162;2022-09-13T00:07:13;5.97;;;3.75;;
38805;SDS011;25635;51.146;17.162;2022-09-13T00:09:39;8.20;;;4.25;;
38805;SDS011;25635;51.146;17.162;2022-09-13T00:12:05;7.10;;;4.62;;
38805;SDS011;25635;51.146;17.162;2022-09-13T00:14:31;10.20;;;5.30;;
38805;SDS011;25635;51.146;17.162;2022-09-13T00:16:58;7.47;;;5.00;;
38805;SDS011;25635;51.146;17.162;2022-09-13T00:19:24;6.97;;;4.58;;
38805;SDS011;25635;51.146;17.162;2022-09-13T00:21:51;7.65;;;4.50;;
38805;SDS011;25635;51.146;17.162;2022-09-13T00:24:17;5.72;;;3.20;;
38805;SDS011;25635;51.146;17.162;2022-09-13T00:26:43;7.60;;;4.42;;
38805;SDS011;25635;51.146;17.162;2022-09-13T00:29:10;7.45;;;4.70;;
38805;SDS011;25635;51.146;17.162;2022-09-13T00:31:36;9.70;;;5.25;;
38805;SDS011;25635;51.146;17.162;2022-09-13T00:34:03;9.38;;;4.72;;
38805;SDS011;25635;51.146;17.162;2022-09-13T00:36:29;6.42;;;4.25;;
38805;SDS011;25635;51.146;17.162;2022-09-13T00:38:56;5.95;;;3.62;;
38805;SDS011;25635;51.146;17.162;2022-09-13T00:41:24;9.75;;;5.17;;
38805;SDS011;25635;51.146;17.162;2022-09-13T00:43:55;9.03;;;4.80;;
38805;SDS011;25635;51.146;17.162;2022-09-13T00:46:44;8.90;;;3.52;;
38805;SDS011;25635;51.146;17.162;2022-09-13T00:49:15;8.28;;;3.98;;
38805;SDS011;25635;51.146;17.162;2022-09-13T00:52:02;7.83;;;4.62;;
38805;SDS011;25635;51.146;17.162;2022-09-13T00:54:33;9.00;;;5.20;;
38805;SDS011;25635;51.146;17.162;2022-09-13T00:57:05;8.18;;;5.80;;
38805;SDS011;25635;51.146;17.162;2022-09-13T00:59:34;9.48;;;4.85;;
38805;SDS011;25635;51.146;17.162;2022-09-13T01:02:05;9.03;;;3.83;;
38805;SDS011;25635;51.146;17.162;2022-09-13T01:04:32;7.90;;;3.75;;
38805;SDS011;25635;51.146;17.162;2022-09-13T01:07:03;7.10;;;4.20;;
38805;SDS011;25635;51.146;17.162;2022-09-13T01:09:34;7.58;;;4.42;;
38805;SDS011;25635;51.146;17.162;2022-09-13T01:14:48;8.28;;;5.03;;
38805;SDS011;25635;51.146;17.162;2022-09-13T01:17:14;8.75;;;5.85;;
38805;SDS011;25635;51.146;17.162;2022-09-13T01:19:40;9.55;;;5.62;;
38805;SDS011;25635;51.146;17.162;2022-09-13T01:42:01;7.97;;;5.10;;
38805;SDS011;25635;51.146;17.162;2022-09-13T01:53:24;7.08;;;3.95;;
38805;SDS011;25635;51.146;17.162;2022-09-13T02:01:28;10.72;;;5.87;;
38805;SDS011;25635;51.146;17.162;2022-09-13T02:04:14;8.70;;;5.20;;
38805;SDS011;25635;51.146;17.162;2022-09-13T02:09:42;7.53;;;4.95;;
38805;SDS011;25635;51.146;17.162;2022-09-13T02:12:13;7.25;;;4.45;;
38805;SDS011;25635;51.146;17.162;2022-09-13T02:15:02;8.13;;;4.67;;
38805;SDS011;25635;51.146;17.162;2022-09-13T02:17:36;7.85;;;4.45;;
38805;SDS011;25635;51.146;17.162;2022-09-13T02:20:07;9.20;;;5.17;;
38805;SDS011;25635;51.146;17.162;2022-09-13T02:22:45;7.40;;;5.17;;
38805;SDS011;25635;51.146;17.162;2022-09-13T02:25:16;7.33;;;5.33;;
38805;SDS011;25635;51.146;17.162;2022-09-13T02:27:47;8.40;;;5.08;;
38805;SDS011;25635;51.146;17.162;2022-09-13T02:30:17;8.73;;;5.12;;
38805;SDS011;25635;51.146;17.162;2022-09-13T02:32:54;7.67;;;4.87;;
38805;SDS011;25635;51.146;17.162;2022-09-13T02:35:28;6.60;;;4.33;;
38805;SDS011;25635;51.146;17.162;2022-09-13T02:38:06;7.78;;;4.70;;
38805;SDS011;25635;51.146;17.162;2022-09-13T02:40:36;6.03;;;4.12;;
38805;SDS011;25635;51.146;17.162;2022-09-13T02:43:10;7.85;;;4.87;;
38805;SDS011;25635;51.146;17.162;2022-09-13T02:45:55;7.72;;;4.75;;
38805;SDS011;25635;51.146;17.162;2022-09-13T02:51:37;7.62;;;5.30;;
38805;SDS011;25635;51.146;17.162;2022-09-13T02:57:04;7.28;;;4.50;;
38805;SDS011;25635;51.146;17.162;2022-09-13T02:59:35;6.72;;;4.42;;
38805;SDS011;25635;51.146;17.162;2022-09-13T03:02:02;7.33;;;4.58;;
38805;SDS011;25635;51.146;17.162;2022-09-13T03:04:39;6.67;;;4.40;;
38805;SDS011;25635;51.146;17.162;2022-09-13T03:07:08;6.85;;;4.45;;
38805;SDS011;25635;51.146;17.162;2022-09-13T03:09:36;6.83;;;4.60;;
38805;SDS011;25635;51.146;17.162;2022-09-13T03:12:11;7.85;;;4.22;;
38805;SDS011;25635;51.146;17.162;2022-09-13T03:14:45;6.72;;;4.20;;
38805;SDS011;25635;51.146;17.162;2022-09-13T03:17:35;7.85;;;4.80;;
38805;SDS011;25635;51.146;17.162;2022-09-13T03:26:06;7.47;;;4.87;;
38805;SDS011;25635;51.146;17.162;2022-09-13T03:28:38;7.22;;;4.85;;
38805;SDS011;25635;51.146;17.162;2022-09-13T03:31:17;6.47;;;4.05;;
38805;SDS011;25635;51.146;17.162;2022-09-13T03:33:47;6.05;;;4.05;;
38805;SDS011;25635;51.146;17.162;2022-09-13T03:42:01;5.95;;;3.95;;
38805;SDS011;25635;51.146;17.162;2022-09-13T03:44:32;6.20;;;4.05;;
38805;SDS011;25635;51.146;17.162;2022-09-13T03:47:02;5.70;;;4.08;;
38805;SDS011;25635;51.146;17.162;2022-09-13T03:49:30;6.60;;;3.90;;
38805;SDS011;25635;51.146;17.162;2022-09-13T03:51:57;7.15;;;4.10;;
38805;SDS011;25635;51.146;17.162;2022-09-13T03:54:25;6.75;;;4.25;;
38805;SDS011;25635;51.146;17.162;2022-09-13T03:57:15;7.60;;;4.65;;
38805;SDS011;25635;51.146;17.162;2022-09-13T04:02:20;6.92;;;4.03;;
38805;SDS011;25635;51.146;17.162;2022-09-13T04:04:48;5.47;;;3.83;;
38805;SDS011;25635;51.146;17.162;2022-09-13T04:07:16;6.17;;;3.75;;
38805;SDS011;25635;51.146;17.162;2022-09-13T04:09:49;6.15;;;3.60;;
38805;SDS011;25635;51.146;17.162;2022-09-13T04:12:16;6.65;;;4.15;;
38805;SDS011;25635;51.146;17.162;2022-09-13T04:14:43;6.12;;;4.05;;
38805;SDS011;25635;51.146;17.162;2022-09-13T04:17:10;6.42;;;3.98;;
38805;SDS011;25635;51.146;17.162;2022-09-13T04:19:36;5.92;;;3.50;;
38805;SDS011;25635;51.146;17.162;2022-09-13T04:22:03;5.42;;;3.62;;
38805;SDS011;25635;51.146;17.162;2022-09-13T04:24:29;7.35;;;4.80;;
38805;SDS011;25635;51.146;17.162;2022-09-13T04:26:56;8.00;;;5.20;;
38805;SDS011;25635;51.146;17.162;2022-09-13T04:29:24;8.08;;;5.72;;
38805;SDS011;25635;51.146;17.162;2022-09-13T04:31:51;12.75;;;6.10;;
38805;SDS011;25635;51.146;17.162;2022-09-13T04:34:20;9.03;;;5.60;;
38805;SDS011;25635;51.146;17.162;2022-09-13T04:36:48;9.03;;;6.53;;
38805;SDS011;25635;51.146;17.162;2022-09-13T04:39:17;9.98;;;6.95;;
38805;SDS011;25635;51.146;17.162;2022-09-13T04:41:45;10.05;;;6.40;;
38805;SDS011;25635;51.146;17.162;2022-09-13T04:44:13;10.78;;;7.20;;
38805;SDS011;25635;51.146;17.162;2022-09-13T04:46:41;10.35;;;7.08;;
38805;SDS011;25635;51.146;17.162;2022-09-13T04:49:14;9.60;;;6.90;;
38805;SDS011;25635;51.146;17.162;2022-09-13T04:51:43;11.55;;;7.05;;
38805;SDS011;25635;51.146;17.162;2022-09-13T04:54:11;9.83;;;6.67;;
38805;SDS011;25635;51.146;17.162;2022-09-13T04:56:38;9.98;;;6.33;;
38805;SDS011;25635;51.146;17.162;2022-09-13T04:59:05;9.85;;;5.83;;
38805;SDS011;25635;51.146;17.162;2022-09-13T05:01:32;8.93;;;5.90;;
38805;SDS011;25635;51.146;17.162;2022-09-13T05:03:59;8.55;;;5.40;;
38805;SDS011;25635;51.146;17.162;2022-09-13T05:06:25;11.05;;;5.58;;
38805;SDS011;25635;51.146;17.162;2022-09-13T05:08:53;8.63;;;5.60;;
38805;SDS011;25635;51.146;17.162;2022-09-13T05:11:21;9.98;;;5.35;;
38805;SDS011;25635;51.146;17.162;2022-09-13T05:13:50;12.05;;;6.00;;
38805;SDS011;25635;51.146;17.162;2022-09-13T05:16:31;9.50;;;5.50;;
38805;SDS011;25635;51.146;17.162;2022-09-13T05:18:56;11.15;;;6.05;;
38805;SDS011;25635;51.146;17.162;2022-09-13T05:21:23;10.72;;;5.72;;
38805;SDS011;25635;51.146;17.162;2022-09-13T05:23:50;8.38;;;5.25;;
38805;SDS011;25635;51.146;17.162;2022-09-13T05:26:18;8.18;;;5.17;;
38805;SDS011;25635;51.146;17.162;2022-09-13T05:28:46;7.22;;;4.65;;
38805;SDS011;25635;51.146;17.162;2022-09-13T05:31:14;7.37;;;4.37;;
38805;SDS011;25635;51.146;17.162;2022-09-13T05:33:44;8.58;;;5.10;;
38805;SDS011;25635;51.146;17.162;2022-09-13T05:36:13;7.97;;;4.70;;
38805;SDS011;25635;51.146;17.162;2022-09-13T05:38:40;11.30;;;5.53;;
38805;SDS011;25635;51.146;17.162;2022-09-13T05:41:06;9.68;;;5.70;;
38805;SDS011;25635;51.146;17.162;2022-09-13T05:43:33;11.57;;;5.42;;
38805;SDS011;25635;51.146;17.162;2022-09-13T05:48:36;9.13;;;6.58;;
38805;SDS011;25635;51.146;17.162;2022-09-13T05:51:07;10.40;;;6.72;;
38805;SDS011;25635;51.146;17.162;2022-09-13T05:53:40;10.32;;;7.20;;
38805;SDS011;25635;51.146;17.162;2022-09-13T05:56:11;12.85;;;8.63;;
38805;SDS011;25635;51.146;17.162;2022-09-13T05:58:50;11.18;;;7.35;;
38805;SDS011;25635;51.146;17.162;2022-09-13T06:01:18;10.88;;;7.45;;
38805;SDS011;25635;51.146;17.162;2022-09-13T06:03:48;13.10;;;8.43;;
38805;SDS011;25635;51.146;17.162;2022-09-13T06:06:17;11.43;;;7.75;;
38805;SDS011;25635;51.146;17.162;2022-09-13T06:08:45;12.90;;;6.20;;
38805;SDS011;25635;51.146;17.162;2022-09-13T06:11:12;9.45;;;5.67;;
38805;SDS011;25635;51.146;17.162;2022-09-13T06:13:40;8.03;;;5.25;;
38805;SDS011;25635;51.146;17.162;2022-09-13T06:16:08;10.13;;;5.97;;
38805;SDS011;25635;51.146;17.162;2022-09-13T06:18:37;30.57;;;8.00;;
38805;SDS011;25635;51.146;17.162;2022-09-13T06:21:05;47.78;;;10.08;;
38805;SDS011;25635;51.146;17.162;2022-09-13T06:23:36;12.63;;;6.30;;
38805;SDS011;25635;51.146;17.162;2022-09-13T06:26:07;13.68;;;5.72;;
38805;SDS011;25635;51.146;17.162;2022-09-13T06:28:38;10.28;;;5.80;;
38805;SDS011;25635;51.146;17.162;2022-09-13T06:31:06;11.12;;;5.50;;
38805;SDS011;25635;51.146;17.162;2022-09-13T06:33:35;7.97;;;4.85;;
38805;SDS011;25635;51.146;17.162;2022-09-13T06:36:05;10.40;;;5.33;;
38805;SDS011;25635;51.146;17.162;2022-09-13T06:38:39;9.80;;;5.45;;
38805;SDS011;25635;51.146;17.162;2022-09-13T06:41:10;7.87;;;4.90;;
38805;SDS011;25635;51.146;17.162;2022-09-13T06:43:46;9.88;;;5.40;;
38805;SDS011;25635;51.146;17.162;2022-09-13T06:46:18;8.78;;;5.30;;
38805;SDS011;25635;51.146;17.162;2022-09-13T06:48:45;8.25;;;4.53;;
38805;SDS011;25635;51.146;17.162;2022-09-13T06:51:14;8.43;;;4.87;;
38805;SDS011;25635;51.146;17.162;2022-09-13T06:53:44;11.50;;;5.17;;
38805;SDS011;25635;51.146;17.162;2022-09-13T06:58:51;9.38;;;5.37;;
38805;SDS011;25635;51.146;17.162;2022-09-13T07:01:23;10.10;;;5.33;;
38805;SDS011;25635;51.146;17.162;2022-09-13T07:03:54;9.95;;;5.08;;
38805;SDS011;25635;51.146;17.162;2022-09-13T07:06:28;8.90;;;4.97;;
38805;SDS011;25635;51.146;17.162;2022-09-13T07:08:58;10.98;;;4.90;;
38805;SDS011;25635;51.146;17.162;2022-09-13T07:11:27;9.33;;;4.45;;
38805;SDS011;25635;51.146;17.162;2022-09-13T07:13:56;9.63;;;4.30;;
38805;SDS011;25635;51.146;17.162;2022-09-13T07:16:24;6.92;;;3.98;;
38805;SDS011;25635;51.146;17.162;2022-09-13T07:18:53;9.08;;;4.20;;
38805;SDS011;25635;51.146;17.162;2022-09-13T07:21:30;9.23;;;4.90;;
38805;SDS011;25635;51.146;17.162;2022-09-13T07:23:57;7.37;;;3.92;;
38805;SDS011;25635;51.146;17.162;2022-09-13T07:26:24;6.75;;;4.22;;
38805;SDS011;25635;51.146;17.162;2022-09-13T07:28:57;6.47;;;3.35;;
38805;SDS011;25635;51.146;17.162;2022-09-13T07:31:29;6.20;;;3.30;;
38805;SDS011;25635;51.146;17.162;2022-09-13T07:33:59;5.85;;;3.42;;
38805;SDS011;25635;51.146;17.162;2022-09-13T07:36:29;5.47;;;3.27;;
38805;SDS011;25635;51.146;17.162;2022-09-13T07:38:57;7.15;;;2.98;;
38805;SDS011;25635;51.146;17.162;2022-09-13T07:41:25;5.03;;;2.87;;
38805;SDS011;25635;51.146;17.162;2022-09-13T07:43:53;6.03;;;2.87;;
38805;SDS011;25635;51.146;17.162;2022-09-13T07:46:21;5.22;;;3.02;;
38805;SDS011;25635;51.146;17.162;2022-09-13T07:48:55;5.83;;;3.05;;
38805;SDS011;25635;51.146;17.162;2022-09-13T07:51:21;6.28;;;3.00;;
38805;SDS011;25635;51.146;17.162;2022-09-13T07:53:54;7.90;;;3.12;;
38805;SDS011;25635;51.146;17.162;2022-09-13T07:56:30;5.10;;;2.87;;
38805;SDS011;25635;51.146;17.162;2022-09-13T07:58:59;7.90;;;3.10;;
38805;SDS011;25635;51.146;17.162;2022-09-13T08:01:33;5.78;;;2.60;;
38805;SDS011;25635;51.146;17.162;2022-09-13T08:04:09;6.40;;;3.12;;
38805;SDS011;25635;51.146;17.162;2022-09-13T08:06:38;6.05;;;2.80;;
38805;SDS011;25635;51.146;17.162;2022-09-13T08:09:08;5.22;;;2.70;;
38805;SDS011;25635;51.146;17.162;2022-09-13T08:11:37;5.28;;;2.67;;
38805;SDS011;25635;51.146;17.162;2022-09-13T08:14:07;4.42;;;2.62;;
38805;SDS011;25635;51.146;17.162;2022-09-13T08:16:39;6.55;;;2.92;;
38805;SDS011;25635;51.146;17.162;2022-09-13T08:19:11;6.62;;;2.60;;
38805;SDS011;25635;51.146;17.162;2022-09-13T08:21:41;4.35;;;2.65;;
38805;SDS011;25635;51.146;17.162;2022-09-13T08:24:13;5.85;;;2.47;;
38805;SDS011;25635;51.146;17.162;2022-09-13T08:26:42;4.37;;;2.50;;
38805;SDS011;25635;51.146;17.162;2022-09-13T08:29:10;4.80;;;2.55;;
38805;SDS011;25635;51.146;17.162;2022-09-13T08:31:37;4.72;;;2.60;;
38805;SDS011;25635;51.146;17.162;2022-09-13T08:34:03;7.08;;;2.70;;
38805;SDS011;25635;51.146;17.162;2022-09-13T08:36:30;4.35;;;2.47;;
38805;SDS011;25635;51.146;17.162;2022-09-13T08:38:57;10.98;;;2.98;;
38805;SDS011;25635;51.146;17.162;2022-09-13T08:50:12;5.33;;;2.40;;
38805;SDS011;25635;51.146;17.162;2022-09-13T08:52:53;7.05;;;2.67;;
38805;SDS011;25635;51.146;17.162;2022-09-13T09:07:20;4.70;;;2.75;;
38805;SDS011;25635;51.146;17.162;2022-09-13T09:09:57;3.95;;;2.22;;
38805;SDS011;25635;51.146;17.162;2022-09-13T09:12:42;5.22;;;2.60;;
38805;SDS011;25635;51.146;17.162;2022-09-13T09:15:40;4.30;;;2.08;;
38805;SDS011;25635;51.146;17.162;2022-09-13T09:18:17;4.22;;;2.22;;
38805;SDS011;25635;51.146;17.162;2022-09-13T09:20:50;5.25;;;2.77;;
38805;SDS011;25635;51.146;17.162;2022-09-13T09:23:22;4.67;;;2.10;;
38805;SDS011;25635;51.146;17.162;2022-09-13T09:25:59;6.50;;;2.58;;
38805;SDS011;25635;51.146;17.162;2022-09-13T09:28:55;5.55;;;2.20;;
38805;SDS011;25635;51.146;17.162;2022-09-13T09:46:38;4.80;;;2.08;;
38805;SDS011;25635;51.146;17.162;2022-09-13T09:49:13;6.17;;;2.80;;
38805;SDS011;25635;51.146;17.162;2022-09-13T09:52:11;4.97;;;3.00;;
38805;SDS011;25635;51.146;17.162;2022-09-13T09:54:41;4.35;;;2.50;;
38805;SDS011;25635;51.146;17.162;2022-09-13T09:57:07;5.03;;;2.33;;
38805;SDS011;25635;51.146;17.162;2022-09-13T09:59:38;5.17;;;2.47;;
38805;SDS011;25635;51.146;17.162;2022-09-13T10:02:17;6.45;;;2.15;;
38805;SDS011;25635;51.146;17.162;2022-09-13T10:04:53;7.55;;;3.40;;
38805;SDS011;25635;51.146;17.162;2022-09-13T10:09:59;7.53;;;3.70;;
38805;SDS011;25635;51.146;17.162;2022-09-13T10:12:32;5.95;;;3.08;;
38805;SDS011;25635;51.146;17.162;2022-09-13T10:15:15;8.85;;;3.08;;
38805;SDS011;25635;51.146;17.162;2022-09-13T10:20:37;4.67;;;2.80;;
38805;SDS011;25635;51.146;17.162;2022-09-13T10:23:11;7.37;;;2.62;;
38805;SDS011;25635;51.146;17.162;2022-09-13T10:26:31;5.95;;;2.40;;
38805;SDS011;25635;51.146;17.162;2022-09-13T10:28:28;4.40;;;2.30;;
38805;SDS011;25635;51.146;17.162;2022-09-13T10:31:07;5.47;;;2.30;;
38805;SDS011;25635;51.146;17.162;2022-09-13T10:33:39;5.10;;;2.17;;
38805;SDS011;25635;51.146;17.162;2022-09-13T10:36:22;5.37;;;2.15;;
38805;SDS011;25635;51.146;17.162;2022-09-13T10:38:58;6.42;;;2.30;;
38805;SDS011;25635;51.146;17.162;2022-09-13T10:41:35;5.05;;;2.50;;
38805;SDS011;25635;51.146;17.162;2022-09-13T10:44:08;4.33;;;2.50;;
38805;SDS011;25635;51.146;17.162;2022-09-13T10:46:54;5.65;;;2.65;;
38805;SDS011;25635;51.146;17.162;2022-09-13T10:52:22;4.78;;;2.40;;
38805;SDS011;25635;51.146;17.162;2022-09-13T11:04:12;4.97;;;2.70;;
38805;SDS011;25635;51.146;17.162;2022-09-13T11:09:35;4.72;;;2.47;;
38805;SDS011;25635;51.146;17.162;2022-09-13T11:15:06;4.95;;;2.33;;
38805;SDS011;25635;51.146;17.162;2022-09-13T11:23:43;5.20;;;2.10;;
38805;SDS011;25635;51.146;17.162;2022-09-13T11:26:45;3.83;;;2.15;;
38805;SDS011;25635;51.146;17.162;2022-09-13T11:38:42;5.50;;;2.45;;
38805;SDS011;25635;51.146;17.162;2022-09-13T11:41:33;4.22;;;1.85;;
38805;SDS011;25635;51.146;17.162;2022-09-13T11:47:44;10.60;;;3.02;;
38805;SDS011;25635;51.146;17.162;2022-09-13T11:50:45;4.37;;;2.20;;
38805;SDS011;25635;51.146;17.162;2022-09-13T11:56:20;5.30;;;2.00;;
38805;SDS011;25635;51.146;17.162;2022-09-13T11:59:12;3.83;;;2.17;;
38805;SDS011;25635;51.146;17.162;2022-09-13T12:01:49;6.12;;;2.35;;
38805;SDS011;25635;51.146;17.162;2022-09-13T12:07:13;5.20;;;2.20;;
38805;SDS011;25635;51.146;17.162;2022-09-13T12:09:40;7.65;;;2.27;;
38805;SDS011;25635;51.146;17.162;2022-09-13T12:12:14;5.15;;;2.15;;
38805;SDS011;25635;51.146;17.162;2022-09-13T12:14:42;5.97;;;2.40;;
38805;SDS011;25635;51.146;17.162;2022-09-13T12:19:56;4.65;;;2.22;;
38805;SDS011;25635;51.146;17.162;2022-09-13T12:22:26;6.28;;;2.27;;
38805;SDS011;25635;51.146;17.162;2022-09-13T12:24:58;6.17;;;2.52;;
38805;SDS011;25635;51.146;17.162;2022-09-13T12:27:32;6.60;;;2.30;;
38805;SDS011;25635;51.146;17.162;2022-09-13T12:30:07;12.95;;;3.27;;
38805;SDS011;25635;51.146;17.162;2022-09-13T12:32:51;8.25;;;2.72;;
38805;SDS011;25635;51.146;17.162;2022-09-13T12:35:30;5.10;;;2.37;;
38805;SDS011;25635;51.146;17.162;2022-09-13T12:44:37;4.40;;;2.22;;
38805;SDS011;25635;51.146;17.162;2022-09-13T12:46:57;8.20;;;2.70;;
38805;SDS011;25635;51.146;17.162;2022-09-13T12:55:47;5.05;;;2.50;;
38805;SDS011;25635;51.146;17.162;2022-09-13T13:02:01;4.60;;;2.60;;
38805;SDS011;25635;51.146;17.162;2022-09-13T13:04:54;4.90;;;2.65;;
38805;SDS011;25635;51.146;17.162;2022-09-13T13:07:24;5.78;;;2.52;;
38805;SDS011;25635;51.146;17.162;2022-09-13T13:09:53;5.95;;;2.62;;
38805;SDS011;25635;51.146;17.162;2022-09-13T13:12:31;6.87;;;2.67;;
38805;SDS011;25635;51.146;17.162;2022-09-13T13:39:34;7.85;;;2.75;;
38805;SDS011;25635;51.146;17.162;2022-09-13T13:41:53;5.75;;;2.70;;
38805;SDS011;25635;51.146;17.162;2022-09-13T13:49:49;6.75;;;2.87;;
38805;SDS011;25635;51.146;17.162;2022-09-13T13:57:30;8.18;;;2.98;;
38805;SDS011;25635;51.146;17.162;2022-09-13T14:00:19;5.55;;;2.60;;
38805;SDS011;25635;51.146;17.162;2022-09-13T14:03:04;6.83;;;2.80;;
38805;SDS011;25635;51.146;17.162;2022-09-13T14:08:33;6.10;;;3.10;;
38805;SDS011;25635;51.146;17.162;2022-09-13T14:14:52;4.70;;;2.58;;
38805;SDS011;25635;51.146;17.162;2022-09-13T14:20:08;6.05;;;2.87;;
38805;SDS011;25635;51.146;17.162;2022-09-13T14:22:41;7.83;;;3.60;;
38805;SDS011;25635;51.146;17.162;2022-09-13T14:27:51;6.05;;;2.80;;
38805;SDS011;25635;51.146;17.162;2022-09-13T14:30:22;7.42;;;3.30;;
38805;SDS011;25635;51.146;17.162;2022-09-13T14:32:53;5.15;;;2.80;;
38805;SDS011;25635;51.146;17.162;2022-09-13T14:35:39;7.62;;;2.83;;
38805;SDS011;25635;51.146;17.162;2022-09-13T14:38:20;6.05;;;2.70;;
38805;SDS011;25635;51.146;17.162;2022-09-13T14:40:57;5.58;;;2.52;;
38805;SDS011;25635;51.146;17.162;2022-09-13T14:43:32;7.30;;;2.92;;
38805;SDS011;25635;51.146;17.162;2022-09-13T14:48:49;7.67;;;2.70;;
38805;SDS011;25635;51.146;17.162;2022-09-13T14:51:23;4.35;;;2.42;;
38805;SDS011;25635;51.146;17.162;2022-09-13T14:54:08;5.37;;;2.85;;
38805;SDS011;25635;51.146;17.162;2022-09-13T14:56:48;5.50;;;2.90;;
38805;SDS011;25635;51.146;17.162;2022-09-13T15:02:18;4.72;;;2.22;;
38805;SDS011;25635;51.146;17.162;2022-09-13T15:04:52;4.00;;;2.35;;
38805;SDS011;25635;51.146;17.162;2022-09-13T15:07:22;4.20;;;2.40;;
38805;SDS011;25635;51.146;17.162;2022-09-13T15:10:06;4.53;;;2.75;;
38805;SDS011;25635;51.146;17.162;2022-09-13T15:15:38;7.22;;;2.77;;
38805;SDS011;25635;51.146;17.162;2022-09-13T15:20:50;5.05;;;2.40;;
38805;SDS011;25635;51.146;17.162;2022-09-13T15:23:38;6.35;;;2.80;;
38805;SDS011;25635;51.146;17.162;2022-09-13T15:31:28;5.67;;;2.90;;
38805;SDS011;25635;51.146;17.162;2022-09-13T15:39:42;4.90;;;2.70;;
38805;SDS011;25635;51.146;17.162;2022-09-13T15:42:15;5.08;;;2.45;;
38805;SDS011;25635;51.146;17.162;2022-09-13T15:44:42;5.05;;;2.77;;
38805;SDS011;25635;51.146;17.162;2022-09-13T15:47:10;8.73;;;3.02;;
38805;SDS011;25635;51.146;17.162;2022-09-13T15:49:45;5.28;;;2.70;;
38805;SDS011;25635;51.146;17.162;2022-09-13T15:52:17;4.87;;;2.80;;
38805;SDS011;25635;51.146;17.162;2022-09-13T15:54:46;5.95;;;2.75;;
38805;SDS011;25635;51.146;17.162;2022-09-13T15:59:48;4.95;;;3.02;;
38805;SDS011;25635;51.146;17.162;2022-09-13T16:02:21;7.60;;;2.98;;
38805;SDS011;25635;51.146;17.162;2022-09-13T16:04:50;4.80;;;2.95;;
38805;SDS011;25635;51.146;17.162;2022-09-13T16:07:18;7.33;;;3.20;;
38805;SDS011;25635;51.146;17.162;2022-09-13T16:09:49;7.37;;;3.12;;
38805;SDS011;25635;51.146;17.162;2022-09-13T16:12:20;6.60;;;2.85;;
38805;SDS011;25635;51.146;17.162;2022-09-13T16:14:48;6.12;;;2.77;;
38805;SDS011;25635;51.146;17.162;2022-09-13T16:17:22;4.92;;;2.62;;
38805;SDS011;25635;51.146;17.162;2022-09-13T16:19:51;5.80;;;2.95;;
38805;SDS011;25635;51.146;17.162;2022-09-13T16:22:18;7.00;;;2.83;;
38805;SDS011;25635;51.146;17.162;2022-09-13T16:24:45;5.08;;;2.80;;
38805;SDS011;25635;51.146;17.162;2022-09-13T16:27:12;7.03;;;2.90;;
38805;SDS011;25635;51.146;17.162;2022-09-13T16:29:41;4.85;;;2.58;;
38805;SDS011;25635;51.146;17.162;2022-09-13T16:32:08;5.05;;;2.62;;
38805;SDS011;25635;51.146;17.162;2022-09-13T16:34:34;6.33;;;2.70;;
38805;SDS011;25635;51.146;17.162;2022-09-13T16:37:00;6.00;;;2.98;;
38805;SDS011;25635;51.146;17.162;2022-09-13T16:39:27;5.47;;;2.52;;
38805;SDS011;25635;51.146;17.162;2022-09-13T16:41:53;34.92;;;12.88;;
38805;SDS011;25635;51.146;17.162;2022-09-13T16:44:20;31.12;;;12.73;;
38805;SDS011;25635;51.146;17.162;2022-09-13T16:46:46;8.25;;;4.10;;
38805;SDS011;25635;51.146;17.162;2022-09-13T16:49:12;7.70;;;3.45;;
38805;SDS011;25635;51.146;17.162;2022-09-13T16:51:38;13.70;;;5.60;;
38805;SDS011;25635;51.146;17.162;2022-09-13T16:54:04;14.43;;;5.65;;
38805;SDS011;25635;51.146;17.162;2022-09-13T16:56:30;9.00;;;4.00;;
38805;SDS011;25635;51.146;17.162;2022-09-13T16:58:57;8.20;;;3.25;;
38805;SDS011;25635;51.146;17.162;2022-09-13T17:01:25;6.65;;;3.40;;
38805;SDS011;25635;51.146;17.162;2022-09-13T17:03:52;6.65;;;3.25;;
38805;SDS011;25635;51.146;17.162;2022-09-13T17:06:20;7.20;;;3.27;;
38805;SDS011;25635;51.146;17.162;2022-09-13T17:08:53;5.70;;;3.27;;
38805;SDS011;25635;51.146;17.162;2022-09-13T17:11:25;5.65;;;3.27;;
38805;SDS011;25635;51.146;17.162;2022-09-13T17:13:55;5.65;;;3.17;;
38805;SDS011;25635;51.146;17.162;2022-09-13T17:16:27;7.10;;;3.30;;
38805;SDS011;25635;51.146;17.162;2022-09-13T17:18:58;4.87;;;3.20;;
38805;SDS011;25635;51.146;17.162;2022-09-13T17:21:28;6.95;;;3.17;;
38805;SDS011;25635;51.146;17.162;2022-09-13T17:23:55;6.17;;;3.17;;
38805;SDS011;25635;51.146;17.162;2022-09-13T17:26:21;8.18;;;3.77;;
38805;SDS011;25635;51.146;17.162;2022-09-13T17:28:48;7.15;;;3.05;;
38805;SDS011;25635;51.146;17.162;2022-09-13T17:31:14;6.67;;;3.10;;
38805;SDS011;25635;51.146;17.162;2022-09-13T17:33:41;5.45;;;2.98;;
38805;SDS011;25635;51.146;17.162;2022-09-13T17:36:07;7.22;;;3.60;;
38805;SDS011;25635;51.146;17.162;2022-09-13T17:38:36;7.78;;;3.60;;
38805;SDS011;25635;51.146;17.162;2022-09-13T17:41:04;5.55;;;3.08;;
38805;SDS011;25635;51.146;17.162;2022-09-13T17:43:37;7.10;;;3.22;;
38805;SDS011;25635;51.146;17.162;2022-09-13T17:46:05;6.40;;;3.17;;
38805;SDS011;25635;51.146;17.162;2022-09-13T17:48:38;5.60;;;3.25;;
38805;SDS011;25635;51.146;17.162;2022-09-13T17:51:05;7.08;;;3.17;;
38805;SDS011;25635;51.146;17.162;2022-09-13T17:53:38;7.83;;;3.85;;
38805;SDS011;25635;51.146;17.162;2022-09-13T17:56:08;8.50;;;2.87;;
38805;SDS011;25635;51.146;17.162;2022-09-13T17:58:35;7.17;;;3.70;;
38805;SDS011;25635;51.146;17.162;2022-09-13T18:01:06;5.92;;;3.22;;
38805;SDS011;25635;51.146;17.162;2022-09-13T18:03:34;6.40;;;3.37;;
38805;SDS011;25635;51.146;17.162;2022-09-13T18:06:03;6.72;;;3.50;;
38805;SDS011;25635;51.146;17.162;2022-09-13T18:08:33;8.80;;;3.80;;
38805;SDS011;25635;51.146;17.162;2022-09-13T18:11:03;6.20;;;3.70;;
38805;SDS011;25635;51.146;17.162;2022-09-13T18:13:32;6.00;;;3.60;;
38805;SDS011;25635;51.146;17.162;2022-09-13T18:16:09;8.43;;;3.55;;
38805;SDS011;25635;51.146;17.162;2022-09-13T18:18:33;7.87;;;4.35;;
38805;SDS011;25635;51.146;17.162;2022-09-13T18:21:02;5.90;;;4.05;;
38805;SDS011;25635;51.146;17.162;2022-09-13T18:23:29;8.45;;;4.05;;
38805;SDS011;25635;51.146;17.162;2022-09-13T18:25:57;4.90;;;3.42;;
38805;SDS011;25635;51.146;17.162;2022-09-13T18:28:30;9.55;;;3.65;;
38805;SDS011;25635;51.146;17.162;2022-09-13T18:30:58;7.62;;;3.80;;
38805;SDS011;25635;51.146;17.162;2022-09-13T18:33:27;6.62;;;3.40;;
38805;SDS011;25635;51.146;17.162;2022-09-13T18:36:04;5.83;;;3.37;;
38805;SDS011;25635;51.146;17.162;2022-09-13T18:38:38;7.47;;;3.75;;
38805;SDS011;25635;51.146;17.162;2022-09-13T18:41:13;8.25;;;3.72;;
38805;SDS011;25635;51.146;17.162;2022-09-13T18:43:47;8.13;;;3.80;;
38805;SDS011;25635;51.146;17.162;2022-09-13T18:46:17;6.08;;;3.05;;
38805;SDS011;25635;51.146;17.162;2022-09-13T18:48:49;7.25;;;3.20;;
38805;SDS011;25635;51.146;17.162;2022-09-13T18:51:19;7.78;;;3.87;;
38805;SDS011;25635;51.146;17.162;2022-09-13T18:53:50;7.60;;;3.47;;
38805;SDS011;25635;51.146;17.162;2022-09-13T18:56:17;8.90;;;4.00;;
38805;SDS011;25635;51.146;17.162;2022-09-13T18:58:45;10.00;;;4.60;;
38805;SDS011;25635;51.146;17.162;2022-09-13T19:01:17;6.80;;;4.67;;